createdAt,value
2019-03-20T00:01:51.199Z,3.20
2019-03-20T00:04:21.889Z,3.10
2019-03-20T00:06:52.531Z,3.10
2019-03-20T00:09:23.461Z,3.10
2019-03-20T00:11:54.280Z,3.00
2019-03-20T00:14:24.901Z,3.00
2019-03-20T00:16:55.425Z,3.00
2019-03-20T00:19:26.054Z,3.00
2019-03-20T00:21:57.866Z,3.00
2019-03-20T00:24:28.490Z,2.90
2019-03-20T00:26:59.312Z,2.90
2019-03-20T00:29:30.057Z,2.90
2019-03-20T00:32:00.680Z,2.90
2019-03-20T00:34:31.266Z,2.90
2019-03-20T00:37:02.146Z,2.80
2019-03-20T00:39:34.064Z,2.80
2019-03-20T00:42:04.715Z,2.80
2019-03-20T00:44:35.430Z,2.70
2019-03-20T00:47:06.018Z,2.70
2019-03-20T00:49:36.764Z,2.70
2019-03-20T00:52:07.460Z,2.70
2019-03-20T00:54:38.074Z,2.70
2019-03-20T00:57:08.527Z,2.70
2019-03-20T00:59:39.027Z,2.70
2019-03-20T01:02:09.663Z,2.70
2019-03-20T01:04:40.219Z,2.70
2019-03-20T01:07:11.048Z,2.70
2019-03-20T01:09:41.775Z,2.70
2019-03-20T01:12:12.149Z,2.70
2019-03-20T01:14:42.736Z,2.70
2019-03-20T01:17:13.342Z,2.70
2019-03-20T01:19:43.825Z,2.70
2019-03-20T01:22:14.251Z,2.70
2019-03-20T01:24:44.651Z,2.60
2019-03-20T01:27:15.220Z,2.60
2019-03-20T01:29:45.838Z,2.60
2019-03-20T01:32:16.240Z,2.60
2019-03-20T01:34:46.641Z,2.60
2019-03-20T01:37:17.322Z,2.60
2019-03-20T01:39:48.524Z,2.60
2019-03-20T01:42:19.151Z,2.50
2019-03-20T01:44:49.594Z,2.50
2019-03-20T01:47:20.001Z,2.50
2019-03-20T01:49:50.434Z,2.50
2019-03-20T01:52:20.838Z,2.40
2019-03-20T01:54:51.365Z,2.40
2019-03-20T01:57:22.287Z,2.40
2019-03-20T01:59:52.778Z,2.40
2019-03-20T02:02:23.250Z,2.40
2019-03-20T02:04:53.717Z,2.40
2019-03-20T02:07:43.186Z,2.40
2019-03-20T02:10:13.990Z,2.40
2019-03-20T02:12:44.428Z,2.30
2019-03-20T02:15:15.598Z,2.30
2019-03-20T02:17:46.240Z,2.30
2019-03-20T02:20:17.299Z,2.40
2019-03-20T02:22:48.066Z,2.40
2019-03-20T02:25:19.111Z,2.40
2019-03-20T02:27:49.643Z,2.40
2019-03-20T02:30:27.722Z,2.40
2019-03-20T02:32:58.478Z,2.40
2019-03-20T02:35:28.880Z,2.40
2019-03-20T02:37:59.497Z,2.50
2019-03-20T02:40:29.869Z,2.50
2019-03-20T02:43:00.574Z,2.40
2019-03-20T02:45:32.029Z,2.40
2019-03-20T02:48:02.481Z,2.40
2019-03-20T02:50:33.139Z,2.40
2019-03-20T02:53:04.106Z,2.40
2019-03-20T02:55:34.558Z,2.40
2019-03-20T02:58:05.055Z,2.40
2019-03-20T03:00:35.534Z,2.40
2019-03-20T03:03:06.092Z,2.40
2019-03-20T03:05:36.511Z,2.30
2019-03-20T03:08:07.234Z,2.30
2019-03-20T03:10:37.746Z,2.30
2019-03-20T03:13:08.428Z,2.30
2019-03-20T03:15:38.884Z,2.40
2019-03-20T03:18:09.328Z,2.40
2019-03-20T03:20:40.828Z,2.40
2019-03-20T03:23:11.312Z,2.40
2019-03-20T03:25:41.767Z,2.30
2019-03-20T03:28:12.364Z,2.40
2019-03-20T03:30:42.969Z,2.40
2019-03-20T03:33:13.499Z,2.40
2019-03-20T03:35:43.936Z,2.40
2019-03-20T03:38:14.379Z,2.30
2019-03-20T03:40:45.014Z,2.30
2019-03-20T03:43:15.576Z,2.30
2019-03-20T03:45:46.088Z,2.20
2019-03-20T03:48:16.751Z,2.30
2019-03-20T03:50:48.345Z,2.30
2019-03-20T03:53:19.215Z,2.40
2019-03-20T03:55:49.602Z,2.40
2019-03-20T03:58:20.218Z,2.40
2019-03-20T04:00:50.734Z,2.30
2019-03-20T04:03:21.363Z,2.20
2019-03-20T04:05:52.045Z,2.20
2019-03-20T04:08:22.454Z,2.10
2019-03-20T04:10:52.981Z,2.10
2019-03-20T04:13:23.534Z,2.00
2019-03-20T04:15:54.101Z,2.00
2019-03-20T04:18:24.892Z,1.90
2019-03-20T04:20:55.367Z,1.90
2019-03-20T04:23:25.803Z,1.90
2019-03-20T04:25:56.318Z,1.90
2019-03-20T04:28:26.989Z,1.80
2019-03-20T04:30:57.716Z,1.80
2019-03-20T04:33:28.382Z,1.80
2019-03-20T04:35:58.852Z,1.80
2019-03-20T04:38:29.485Z,1.70
2019-03-20T04:41:06.257Z,1.70
2019-03-20T04:43:36.636Z,1.60
2019-03-20T04:46:07.109Z,1.60
2019-03-20T04:48:38.013Z,1.60
2019-03-20T04:51:08.630Z,1.60
2019-03-20T04:53:39.300Z,1.50
2019-03-20T04:56:09.821Z,1.60
2019-03-20T04:58:46.843Z,1.50
2019-03-20T05:01:17.572Z,1.50
2019-03-20T05:03:48.005Z,1.50
2019-03-20T05:06:18.527Z,1.40
2019-03-20T05:08:48.961Z,1.40
2019-03-20T05:11:19.484Z,1.40
2019-03-20T05:13:49.988Z,1.40
2019-03-20T05:16:20.414Z,1.40
2019-03-20T05:18:50.861Z,1.40
2019-03-20T05:21:21.411Z,1.40
2019-03-20T05:23:51.852Z,1.50
2019-03-20T05:26:22.427Z,1.50
2019-03-20T05:28:53.064Z,1.50
2019-03-20T05:31:23.900Z,1.50
2019-03-20T05:33:54.472Z,1.60
2019-03-20T05:36:25.048Z,1.60
2019-03-20T05:38:55.784Z,1.70
2019-03-20T05:41:26.261Z,1.70
2019-03-20T05:43:56.972Z,1.80
2019-03-20T05:46:27.408Z,1.80
2019-03-20T05:48:58.223Z,1.80
2019-03-20T05:51:28.859Z,1.90
2019-03-20T05:53:59.725Z,1.90
2019-03-20T05:56:30.409Z,2.00
2019-03-20T05:59:00.858Z,2.00
2019-03-20T06:01:31.295Z,2.00
2019-03-20T06:04:01.836Z,2.10
2019-03-20T06:06:32.581Z,2.10
2019-03-20T06:09:05.886Z,2.20
2019-03-20T06:11:36.562Z,2.30
2019-03-20T06:14:07.021Z,2.40
2019-03-20T06:16:37.714Z,2.50
2019-03-20T06:19:08.627Z,2.50
2019-03-20T06:21:39.179Z,2.60
2019-03-20T06:24:09.847Z,2.70
2019-03-20T06:26:40.561Z,2.70
2019-03-20T06:29:11.101Z,2.80
2019-03-20T06:31:41.946Z,2.90
2019-03-20T06:34:12.594Z,3.00
2019-03-20T06:36:43.802Z,3.00
2019-03-20T06:39:14.416Z,3.00
2019-03-20T06:41:44.892Z,3.00
2019-03-20T06:44:15.306Z,3.10
2019-03-20T06:46:45.878Z,3.10
2019-03-20T06:49:16.368Z,3.10
2019-03-20T06:51:47.986Z,3.20
2019-03-20T06:54:18.588Z,3.20
2019-03-20T06:56:49.018Z,3.30
2019-03-20T07:00:09.934Z,3.40
2019-03-20T07:02:43.388Z,3.40
2019-03-20T07:05:42.932Z,3.60
2019-03-20T07:08:13.370Z,3.70
2019-03-20T07:11:16.323Z,3.90
2019-03-20T07:13:46.852Z,3.90
2019-03-20T07:16:17.691Z,3.90
2019-03-20T07:18:48.322Z,4.00
2019-03-20T07:21:19.008Z,4.00
2019-03-20T07:23:49.837Z,4.10
2019-03-20T07:26:20.431Z,4.20
2019-03-20T07:28:51.369Z,4.40
2019-03-20T07:31:22.012Z,4.50
2019-03-20T07:33:52.639Z,4.50
2019-03-20T07:36:23.511Z,4.50
2019-03-20T07:38:53.987Z,4.50
2019-03-20T07:41:24.434Z,4.60
2019-03-20T07:43:55.187Z,4.60
2019-03-20T07:46:25.738Z,4.70
2019-03-20T07:48:56.411Z,4.80
2019-03-20T07:51:26.972Z,4.80
2019-03-20T07:53:57.535Z,4.90
2019-03-20T07:56:28.010Z,5.00
2019-03-20T07:58:58.466Z,5.10
2019-03-20T08:01:28.906Z,5.10
2019-03-20T08:03:59.392Z,5.20
2019-03-20T08:06:31.092Z,5.30
2019-03-20T08:09:01.645Z,5.50
2019-03-20T08:11:32.521Z,5.60
2019-03-20T08:14:03.315Z,5.60
2019-03-20T08:16:33.926Z,5.70
2019-03-20T08:19:04.638Z,5.90
2019-03-20T08:21:35.130Z,5.80
2019-03-20T08:24:05.693Z,5.70
2019-03-20T08:26:36.293Z,5.60
2019-03-20T08:29:07.179Z,5.60
2019-03-20T08:31:37.833Z,5.70
2019-03-20T08:34:08.282Z,5.80
2019-03-20T08:36:38.860Z,5.90
2019-03-20T08:39:10.599Z,5.90
2019-03-20T08:41:41.272Z,6.00
2019-03-20T08:44:11.891Z,6.10
2019-03-20T08:46:42.478Z,6.20
2019-03-20T08:49:13.089Z,6.30
2019-03-20T08:51:43.675Z,6.40
2019-03-20T08:54:14.309Z,6.40
2019-03-20T08:56:44.949Z,6.40
2019-03-20T08:59:18.124Z,6.50
2019-03-20T09:01:48.769Z,6.70
2019-03-20T09:04:19.440Z,6.90
2019-03-20T09:06:50.109Z,7.00
2019-03-20T09:09:20.715Z,7.00
2019-03-20T09:11:51.135Z,7.20
2019-03-20T09:14:21.827Z,7.40
2019-03-20T09:16:52.497Z,7.60
2019-03-20T09:19:23.215Z,7.70
2019-03-20T09:21:53.866Z,7.70
2019-03-20T09:24:24.803Z,7.70
2019-03-20T09:26:55.240Z,7.70
2019-03-20T09:29:35.707Z,7.70
2019-03-20T09:31:58.446Z,7.50
2019-03-20T09:34:30.177Z,7.40
2019-03-20T09:37:00.884Z,7.50
2019-03-20T09:39:31.733Z,7.50
2019-03-20T09:42:02.590Z,7.60
2019-03-20T09:44:33.199Z,7.70
2019-03-20T09:47:03.761Z,7.60
2019-03-20T09:49:34.326Z,7.60
2019-03-20T09:52:05.178Z,7.60
2019-03-20T09:54:36.576Z,7.70
2019-03-20T09:57:07.148Z,7.70
2019-03-20T09:59:37.626Z,7.70
2019-03-20T10:02:08.655Z,7.60
2019-03-20T10:04:39.326Z,7.50
2019-03-20T10:07:09.879Z,7.50
2019-03-20T10:09:40.457Z,7.50
2019-03-20T10:12:10.931Z,7.80
2019-03-20T10:14:41.484Z,7.90
2019-03-20T10:17:12.496Z,8.10
2019-03-20T10:19:42.989Z,8.10
2019-03-20T10:22:13.483Z,8.30
2019-03-20T10:24:44.387Z,8.50
2019-03-20T10:27:15.107Z,8.60
2019-03-20T10:29:45.681Z,8.90
2019-03-20T10:32:16.285Z,8.80
2019-03-20T10:34:46.924Z,9.00
2019-03-20T10:37:17.781Z,9.10
2019-03-20T10:39:48.340Z,8.80
2019-03-20T10:42:18.918Z,8.90
2019-03-20T10:44:49.679Z,8.90
2019-03-20T10:47:21.477Z,9.00
2019-03-20T10:49:52.042Z,9.20
2019-03-20T10:52:22.589Z,9.40
2019-03-20T10:54:53.619Z,9.40
2019-03-20T10:57:24.199Z,9.30
2019-03-20T10:59:54.989Z,9.10
2019-03-20T11:02:25.516Z,9.30
2019-03-20T11:04:56.087Z,8.90
2019-03-20T11:07:26.734Z,8.70
2019-03-20T11:09:57.528Z,8.70
2019-03-20T11:12:28.098Z,8.70
2019-03-20T11:14:58.939Z,8.80
2019-03-20T11:17:29.830Z,8.70
2019-03-20T11:20:00.526Z,8.40
2019-03-20T11:22:31.414Z,8.30
2019-03-20T11:25:01.939Z,8.10
2019-03-20T11:27:33.478Z,8.00
2019-03-20T11:30:04.654Z,8.00
2019-03-20T11:32:35.410Z,7.90
2019-03-20T11:35:06.179Z,7.90
2019-03-20T11:37:36.730Z,8.00
2019-03-20T11:40:10.310Z,8.00
2019-03-20T11:42:40.862Z,8.20
2019-03-20T11:45:12.031Z,8.50
2019-03-20T11:47:42.940Z,8.80
2019-03-20T11:50:22.338Z,8.80
2019-03-20T11:52:53.477Z,9.10
2019-03-20T11:55:24.458Z,9.20
2019-03-20T11:57:55.401Z,9.30
2019-03-20T12:00:26.289Z,9.70
2019-03-20T12:02:57.267Z,10.00
2019-03-20T12:05:27.741Z,9.90
2019-03-20T12:08:00.069Z,9.80
2019-03-20T12:10:30.807Z,10.20
2019-03-20T12:13:01.699Z,10.80
2019-03-20T12:15:33.855Z,11.00
2019-03-20T12:18:05.824Z,11.10
2019-03-20T12:20:36.559Z,11.00
2019-03-20T12:23:07.233Z,11.30
2019-03-20T12:25:38.077Z,12.00
2019-03-20T12:28:09.777Z,11.80
2019-03-20T12:30:40.908Z,11.40
2019-03-20T12:33:12.015Z,11.00
2019-03-20T12:35:42.518Z,11.40
2019-03-20T12:38:15.414Z,11.50
2019-03-20T12:40:45.873Z,11.20
2019-03-20T12:43:16.672Z,11.20
2019-03-20T12:45:47.325Z,13.10
2019-03-20T12:48:18.348Z,15.50
2019-03-20T12:50:49.129Z,16.60
2019-03-20T12:53:19.914Z,16.60
2019-03-20T12:55:50.614Z,17.10
2019-03-20T12:58:21.186Z,18.70
2019-03-20T13:00:54.381Z,21.00
2019-03-20T13:03:24.586Z,19.70
2019-03-20T13:05:56.270Z,18.90
2019-03-20T13:08:26.926Z,19.00
2019-03-20T13:10:57.756Z,19.30
2019-03-20T13:13:28.250Z,18.60
2019-03-20T13:15:59.131Z,16.70
2019-03-20T13:18:29.874Z,16.10
2019-03-20T13:21:00.918Z,16.60
2019-03-20T13:23:32.611Z,17.40
2019-03-20T13:26:03.141Z,19.80
2019-03-20T13:28:33.831Z,21.70
2019-03-20T13:31:09.311Z,22.30
2019-03-20T13:33:40.256Z,23.00
2019-03-20T13:36:11.583Z,21.50
2019-03-20T13:38:42.508Z,20.50
2019-03-20T13:41:13.335Z,20.80
2019-03-20T13:43:45.377Z,21.80
2019-03-20T13:46:16.127Z,21.40
2019-03-20T13:48:46.633Z,18.70
2019-03-20T13:51:17.488Z,17.10
2019-03-20T13:53:48.210Z,16.90
2019-03-20T13:56:20.365Z,15.60
2019-03-20T13:58:52.317Z,14.90
2019-03-20T14:01:23.595Z,16.40
2019-03-20T14:03:54.187Z,17.80
2019-03-20T14:06:25.335Z,19.00
2019-03-20T14:08:56.200Z,19.60
2019-03-20T14:11:26.700Z,18.60
2019-03-20T14:13:57.262Z,18.00
2019-03-20T14:16:28.320Z,16.50
2019-03-20T14:18:59.392Z,14.70
2019-03-20T14:21:30.296Z,13.60
2019-03-20T14:24:01.210Z,13.30
2019-03-20T14:26:31.750Z,12.80
2019-03-20T14:29:02.720Z,12.30
2019-03-20T14:31:33.336Z,12.10
2019-03-20T14:34:04.183Z,11.70
2019-03-20T14:36:35.388Z,11.30
2019-03-20T14:39:08.806Z,11.20
2019-03-20T14:41:39.677Z,10.90
2019-03-20T14:44:10.245Z,10.60
2019-03-20T14:46:41.056Z,10.60
2019-03-20T14:49:12.800Z,10.50
2019-03-20T14:51:43.459Z,10.40
2019-03-20T14:54:14.028Z,10.40
2019-03-20T14:56:44.963Z,10.20
2019-03-20T14:59:15.794Z,10.10
2019-03-20T15:01:46.376Z,10.10
2019-03-20T15:04:16.955Z,10.20
2019-03-20T15:06:47.504Z,10.20
2019-03-20T15:09:18.310Z,10.20
2019-03-20T15:11:57.203Z,10.20
2019-03-20T15:14:29.254Z,10.20
2019-03-20T15:16:59.927Z,10.00
2019-03-20T15:19:30.865Z,9.90
2019-03-20T15:22:01.543Z,9.90
2019-03-20T15:24:32.411Z,9.90
2019-03-20T15:27:03.115Z,9.90
2019-03-20T15:29:34.085Z,10.00
2019-03-20T15:32:04.772Z,9.90
2019-03-20T15:34:35.255Z,9.80
2019-03-20T15:37:06.694Z,9.90
2019-03-20T15:39:37.233Z,9.80
2019-03-20T15:42:07.908Z,9.70
2019-03-20T15:44:39.098Z,9.60
2019-03-20T15:47:10.122Z,9.60
2019-03-20T15:49:40.850Z,9.60
2019-03-20T15:52:14.734Z,9.70
2019-03-20T15:54:46.306Z,9.70
2019-03-20T15:57:17.207Z,9.70
2019-03-20T15:59:48.622Z,9.70
2019-03-20T16:02:19.408Z,9.70
2019-03-20T16:04:50.110Z,9.60
2019-03-20T16:07:20.832Z,9.50
2019-03-20T16:09:51.670Z,9.60
2019-03-20T16:12:22.559Z,9.50
2019-03-20T16:14:54.429Z,9.40
2019-03-20T16:17:25.482Z,9.40
2019-03-20T16:19:56.904Z,9.20
2019-03-20T16:22:27.835Z,9.10
2019-03-20T16:24:59.082Z,9.00
2019-03-20T16:27:32.060Z,8.90
2019-03-20T16:30:03.621Z,8.90
2019-03-20T16:32:34.285Z,8.80
2019-03-20T16:35:05.499Z,8.80
2019-03-20T16:37:36.499Z,8.80
2019-03-20T16:40:09.025Z,8.70
2019-03-20T16:42:39.673Z,8.70
2019-03-20T16:45:12.897Z,8.70
2019-03-20T16:47:44.103Z,8.70
2019-03-20T16:50:15.451Z,8.70
2019-03-20T16:52:46.407Z,8.70
2019-03-20T16:55:17.060Z,8.70
2019-03-20T16:57:47.843Z,8.60
2019-03-20T17:00:26.602Z,8.60
2019-03-20T17:02:57.456Z,8.60
2019-03-20T17:05:28.486Z,8.50
2019-03-20T17:07:59.536Z,8.50
2019-03-20T17:10:32.651Z,8.60
2019-03-20T17:13:03.611Z,8.60
2019-03-20T17:15:35.085Z,8.60
2019-03-20T17:18:06.766Z,8.60
2019-03-20T17:20:38.468Z,8.60
2019-03-20T17:23:09.615Z,8.50
2019-03-20T17:25:42.084Z,8.40
2019-03-20T17:28:13.496Z,8.50
2019-03-20T17:30:44.900Z,8.50
2019-03-20T17:33:16.513Z,8.60
2019-03-20T17:35:47.930Z,8.40
2019-03-20T17:38:19.570Z,8.30
2019-03-20T17:40:51.244Z,8.30
2019-03-20T17:43:23.038Z,8.30
2019-03-20T17:45:56.060Z,8.30
2019-03-20T17:48:27.005Z,8.30
2019-03-20T17:50:58.134Z,8.20
2019-03-20T17:53:29.605Z,8.10
2019-03-20T17:56:05.400Z,8.10
2019-03-20T17:58:38.479Z,8.10
2019-03-20T18:01:11.329Z,8.10
2019-03-20T18:03:42.537Z,8.10
2019-03-20T18:06:13.339Z,8.20
2019-03-20T18:08:44.159Z,8.20
2019-03-20T18:11:15.124Z,8.20
2019-03-20T18:13:45.738Z,8.20
2019-03-20T18:16:16.979Z,8.20
2019-03-20T18:18:48.071Z,8.20
2019-03-20T18:21:19.751Z,8.30
2019-03-20T18:23:51.403Z,8.20
2019-03-20T18:26:22.451Z,8.30
2019-03-20T18:28:53.487Z,8.30
2019-03-20T18:31:24.945Z,8.30
2019-03-20T18:33:56.037Z,8.40
2019-03-20T18:36:27.713Z,8.30
2019-03-20T18:38:58.947Z,8.20
2019-03-20T18:41:29.674Z,8.10
2019-03-20T18:44:00.785Z,8.10
2019-03-20T18:46:31.781Z,8.10
2019-03-20T18:49:02.681Z,8.10
2019-03-20T18:51:33.599Z,8.10
2019-03-20T18:54:05.372Z,8.00
2019-03-20T18:56:36.979Z,8.00
2019-03-20T18:59:08.542Z,8.10
2019-03-20T19:01:39.215Z,7.90
2019-03-20T19:04:10.071Z,8.00
2019-03-20T19:06:41.105Z,8.00
2019-03-20T19:09:12.563Z,8.00
2019-03-20T19:11:44.797Z,7.90
2019-03-20T19:14:17.123Z,7.90
2019-03-20T19:16:48.550Z,7.90
2019-03-20T19:19:21.071Z,7.90
2019-03-20T19:21:51.946Z,7.90
2019-03-20T19:24:22.920Z,7.90
2019-03-20T19:26:53.811Z,8.00
2019-03-20T19:29:25.000Z,7.90
2019-03-20T19:31:57.333Z,7.80
2019-03-20T19:34:28.735Z,7.90
2019-03-20T19:37:00.147Z,7.80
2019-03-20T19:39:32.202Z,7.90
2019-03-20T19:42:03.521Z,7.80
2019-03-20T19:44:35.305Z,7.80
2019-03-20T19:47:06.485Z,7.80
2019-03-20T19:49:38.569Z,7.80
2019-03-20T19:52:10.012Z,7.70
2019-03-20T19:54:42.281Z,7.80
2019-03-20T19:57:13.472Z,7.80
2019-03-20T19:59:45.752Z,7.70
2019-03-20T20:02:16.876Z,7.80
2019-03-20T20:04:47.831Z,7.80
2019-03-20T20:07:18.900Z,7.80
2019-03-20T20:09:49.993Z,7.80
2019-03-20T20:12:30.818Z,7.80
2019-03-20T20:14:53.372Z,7.90
2019-03-20T20:17:24.330Z,7.90
2019-03-20T20:19:55.102Z,7.90
2019-03-20T20:22:26.302Z,8.00
2019-03-20T20:24:58.763Z,8.00
2019-03-20T20:27:55.114Z,7.90
2019-03-20T20:30:25.998Z,7.80
2019-03-20T20:32:57.053Z,7.80
2019-03-20T20:35:27.758Z,7.80
2019-03-20T20:37:58.878Z,7.80
2019-03-20T20:40:30.952Z,7.80
2019-03-20T20:43:01.720Z,7.80
2019-03-20T20:45:34.108Z,7.80
2019-03-20T20:48:05.623Z,7.80
2019-03-20T20:50:36.769Z,7.70
2019-03-20T20:53:07.911Z,7.70
2019-03-20T20:55:39.039Z,7.70
2019-03-20T20:58:10.999Z,7.80
2019-03-20T21:00:42.095Z,7.80
2019-03-20T21:03:13.969Z,7.80
2019-03-20T21:05:45.464Z,7.80
2019-03-20T21:08:16.878Z,7.80
2019-03-20T21:10:49.093Z,7.70
2019-03-20T21:13:20.535Z,7.70
2019-03-20T21:15:54.829Z,7.60
2019-03-20T21:19:05.639Z,7.60
2019-03-20T21:22:21.051Z,7.60
2019-03-20T21:24:53.304Z,7.70
2019-03-20T21:28:02.788Z,7.60
2019-03-20T21:31:08.151Z,7.60
2019-03-20T21:34:33.859Z,7.60
2019-03-20T21:37:39.657Z,7.70
2019-03-20T21:40:12.681Z,7.60
2019-03-20T21:43:39.749Z,7.60
2019-03-20T21:46:47.343Z,7.60
2019-03-20T21:49:19.218Z,7.60
2019-03-20T21:51:50.748Z,7.60
2019-03-20T21:54:58.336Z,7.50
2019-03-20T21:57:53.648Z,7.60
2019-03-20T22:01:04.246Z,7.50
2019-03-20T22:03:35.885Z,7.60
2019-03-20T22:06:43.366Z,7.60
2019-03-20T22:09:42.074Z,7.60
2019-03-20T22:12:34.484Z,7.50
2019-03-20T22:15:14.254Z,7.50
2019-03-20T22:18:14.517Z,7.60
2019-03-20T22:21:19.210Z,7.60
2019-03-20T22:24:19.957Z,7.70
2019-03-20T22:27:29.394Z,7.70
2019-03-20T22:30:01.055Z,7.70
2019-03-20T22:32:59.887Z,7.70
2019-03-20T22:36:21.395Z,7.70
2019-03-20T22:39:38.184Z,7.80
2019-03-20T22:42:25.955Z,7.90
2019-03-20T22:45:36.759Z,7.90
2019-03-20T22:48:42.924Z,8.00
2019-03-20T22:51:39.083Z,8.00
2019-03-20T22:54:45.395Z,7.90
2019-03-20T22:57:52.777Z,7.80
2019-03-20T23:00:25.601Z,7.80
2019-03-20T23:03:07.995Z,7.80
2019-03-20T23:05:39.697Z,7.90
2019-03-20T23:08:17.216Z,8.00
2019-03-20T23:10:50.345Z,7.90
2019-03-20T23:13:22.292Z,8.00
2019-03-20T23:15:53.784Z,8.00
2019-03-20T23:18:25.382Z,8.00
2019-03-20T23:20:56.682Z,7.90
2019-03-20T23:23:28.160Z,7.90
2019-03-20T23:25:59.960Z,7.90
2019-03-20T23:28:31.902Z,7.90
2019-03-20T23:31:03.622Z,7.90
2019-03-20T23:33:35.266Z,7.90
2019-03-20T23:36:07.193Z,7.80
2019-03-20T23:38:39.008Z,7.80
2019-03-20T23:41:10.846Z,7.90
2019-03-20T23:43:52.330Z,7.90
2019-03-20T23:46:15.920Z,8.00
2019-03-20T23:49:18.058Z,8.00
2019-03-20T23:51:49.804Z,7.90
2019-03-20T23:54:24.530Z,8.00
2019-03-20T23:56:56.289Z,7.90
2019-03-20T23:59:27.664Z,7.90
